Time;durP1;ratioP1;P1;durP2;ratioP2;P2;SDS_P1;SDS_P2;PMS_P1;PMS_P2;Temp;Humidity;BMP_temperature;BMP_pressure;BME280_temperature;BME280_humidity;BME280_pressure;Samples;Min_cycle;Max_cycle;Signal;HPM_P1;HPM_P2
2022/07/05 00:00:33;;;;;;;;;;;;;;;-142.75;100.00;77194.34;5055021;28;19913;-72
2022/07/05 00:02:58;;;;;;;;;;;;;;;-142.75;100.00;77192.38;5055168;28;19920;-72
2022/07/05 00:05:23;;;;;;;;;;;;;;;-142.75;100.00;77196.31;5055074;28;19986;-72
2022/07/05 00:07:49;;;;;;;;;;;;;;;-142.75;100.00;77184.50;5054889;28;19913;-70
2022/07/05 00:10:14;;;;;;;;;;;;;;;-142.75;100.00;77188.44;5054884;28;19919;-71
2022/07/05 00:12:39;;;;;;;;;;;;;;;-142.75;100.00;77186.47;5054950;28;19913;-70
2022/07/05 00:15:04;;;;;;;;;;;;;;;-142.75;100.00;77184.50;5054803;28;19952;-71
2022/07/05 00:17:30;;;;;;;;;;;;;;;-142.75;100.00;77190.41;5054853;28;19952;-71
2022/07/05 00:19:55;;;;;;;;;;;;;;;-142.75;100.00;77192.38;5054599;28;19913;-70
2022/07/05 00:22:20;;;;;;;;;;;;;;;-142.75;100.00;77190.41;5036813;28;19917;-71
2022/07/05 00:24:45;;;;;;;;;;;;;;;-142.75;100.00;77194.34;5054550;28;20314;-71
2022/07/05 00:27:11;;;;;;;;;;;;;;;-142.75;100.00;77198.28;5054635;28;19921;-71
2022/07/05 00:29:36;;;;;;;;;;;;;;;-142.75;100.00;77194.34;5054268;28;19916;-71
2022/07/05 00:32:01;;;;;;;;;;;;;;;-142.75;100.00;77210.09;5054796;28;20343;-71
2022/07/05 00:34:26;;;;;;;;;;;;;;;-142.75;100.00;77223.88;5054666;28;20421;-71
2022/07/05 00:36:52;;;;;;;;;;;;;;;-142.75;100.00;77231.75;5054417;28;19917;-70
2022/07/05 00:39:17;;;;;;;;;;;;;;;-142.75;100.00;77237.66;5036295;28;19967;-71
2022/07/05 00:41:42;;;;;;;;;;;;;;;-142.75;100.00;77241.59;5036475;28;19944;-71
2022/07/05 00:44:09;;;;;;;;;;;;;;;-142.75;100.00;77241.59;5054061;28;19921;-71
2022/07/05 00:46:34;;;;;;;;;;;;;;;-142.75;100.00;77243.56;5054264;28;19913;-70
2022/07/05 00:49:02;;;;;;;;;;;;;;;-142.75;100.00;77225.84;5053048;28;19913;-71
2022/07/05 00:51:29;;;;;;;;;;;;;;;-142.75;100.00;77208.13;5054026;28;19912;-71
2022/07/05 00:53:54;;;;;;;;;;;;;;;-142.75;100.00;77208.13;5054164;28;19920;-70
2022/07/05 00:56:20;;;;;;;;;;;;;;;-142.75;100.00;77210.09;5054108;28;19913;-71
2022/07/05 00:58:45;;;;;;;;;;;;;;;-142.75;100.00;77212.06;5053720;28;20362;-71
2022/07/05 01:01:11;;;;;;;;;;;;;;;-142.75;100.00;77200.25;5036191;28;19913;-71
2022/07/05 01:03:37;;;;;;;;;;;;;;;-142.75;100.00;77210.09;5053995;28;19969;-71
2022/07/05 01:06:04;;;;;;;;;;;;;;;-142.75;100.00;77210.09;5053906;28;19967;-71
2022/07/05 01:08:30;;;;;;;;;;;;;;;-142.75;100.00;77214.03;5053656;28;19913;-70
2022/07/05 01:10:55;;;;;;;;;;;;;;;-142.75;100.00;77223.88;5053792;28;20375;-71
2022/07/05 01:13:22;;;;;;;;;;;;;;;-142.75;100.00;77225.84;5035700;28;19923;-70
2022/07/05 01:15:48;;;;;;;;;;;;;;;-142.75;100.00;77231.75;5053763;28;20362;-71
2022/07/05 01:18:13;;;;;;;;;;;;;;;-142.75;100.00;77231.75;5035600;28;19973;-71
2022/07/05 01:20:39;;;;;;;;;;;;;;;-142.75;100.00;77239.63;5053659;28;20286;-71
2022/07/05 01:23:04;;;;;;;;;;;;;;;-142.75;100.00;77237.66;5053641;28;19957;-71
2022/07/05 01:25:30;;;;;;;;;;;;;;;-142.75;100.00;77247.50;5053374;28;20006;-71
2022/07/05 01:27:56;;;;;;;;;;;;;;;-142.75;100.00;77251.44;5053121;28;19912;-70
2022/07/05 01:30:21;;;;;;;;;;;;;;;-142.75;100.00;77249.47;5053419;28;20337;-71
2022/07/05 01:32:47;;;;;;;;;;;;;;;-142.75;100.00;77253.41;5035568;28;19917;-70
2022/07/05 01:35:12;;;;;;;;;;;;;;;-142.75;100.00;77259.31;5053378;28;20370;-71
2022/07/05 01:37:38;;;;;;;;;;;;;;;-142.75;100.00;77259.31;5053315;28;19913;-71
2022/07/05 01:40:04;;;;;;;;;;;;;;;-142.75;100.00;77255.38;5053018;28;20382;-71
2022/07/05 01:42:30;;;;;;;;;;;;;;;-142.75;100.00;77265.22;5053125;28;19919;-71
2022/07/05 01:44:55;;;;;;;;;;;;;;;-142.75;100.00;77279.00;5052955;28;20015;-70
2022/07/05 01:47:20;;;;;;;;;;;;;;;-142.75;100.00;77280.97;5053163;28;20003;-71
2022/07/05 01:49:46;;;;;;;;;;;;;;;-142.75;100.00;77290.81;5052812;28;20442;-71
2022/07/05 01:52:12;;;;;;;;;;;;;;;-142.75;100.00;77302.63;5053071;28;19970;-71
2022/07/05 01:54:38;;;;;;;;;;;;;;;-142.75;100.00;77306.56;5034982;28;19958;-71
2022/07/05 01:57:04;;;;;;;;;;;;;;;-142.75;100.00;77318.38;5052988;28;20320;-71
2022/07/05 01:59:31;;;;;;;;;;;;;;;-142.75;100.00;77314.44;5052673;28;19923;-70
2022/07/05 02:01:57;;;;;;;;;;;;;;;-142.75;100.00;77314.44;5052561;28;20003;-71
2022/07/05 02:04:23;;;;;;;;;;;;;;;-142.75;100.00;77318.38;5052681;28;20005;-71
2022/07/05 02:06:48;;;;;;;;;;;;;;;-142.75;100.00;77312.47;5034952;28;19967;-71
2022/07/05 02:09:13;;;;;;;;;;;;;;;-142.75;100.00;77304.59;5052776;28;20337;-71
2022/07/05 02:11:38;;;;;;;;;;;;;;;-142.75;100.00;77302.63;5052633;28;20010;-71
2022/07/05 02:14:04;;;;;;;;;;;;;;;-142.75;100.00;77298.69;5052588;28;19923;-71
2022/07/05 02:16:29;;;;;;;;;;;;;;;-142.75;100.00;77306.56;5052640;28;19912;-71
2022/07/05 02:18:54;;;;;;;;;;;;;;;-142.75;100.00;77330.19;5052358;28;19913;-71
2022/07/05 02:21:20;;;;;;;;;;;;;;;-142.75;100.00;77349.88;5052568;28;19935;-71
2022/07/05 02:23:45;;;;;;;;;;;;;;;-142.75;100.00;77332.16;5034573;28;19962;-71
2022/07/05 02:26:10;;;;;;;;;;;;;;;-142.75;100.00;77334.13;5052401;28;20322;-71
2022/07/05 02:28:36;;;;;;;;;;;;;;;-142.75;100.00;77359.72;5052106;28;19928;-71
2022/07/05 02:31:01;;;;;;;;;;;;;;;-142.75;100.00;77373.50;5052575;28;20011;-71
2022/07/05 02:33:26;;;;;;;;;;;;;;;-142.75;100.00;77381.38;5034465;28;19913;-71
2022/07/05 02:35:51;;;;;;;;;;;;;;;-142.75;100.00;77391.22;5052367;28;20321;-71
2022/07/05 02:38:16;;;;;;;;;;;;;;;-142.75;100.00;77391.22;5051986;28;19912;-71
2022/07/05 02:40:42;;;;;;;;;;;;;;;-142.75;100.00;77395.16;5052386;28;19952;-71
2022/07/05 02:43:07;;;;;;;;;;;;;;;-142.75;100.00;77410.91;5052200;28;20410;-71
2022/07/05 02:45:32;;;;;;;;;;;;;;;-142.75;100.00;77406.97;5051956;28;20045;-71
2022/07/05 02:47:57;;;;;;;;;;;;;;;-142.75;100.00;77408.94;5051921;28;19912;-70
2022/07/05 02:50:22;;;;;;;;;;;;;;;-142.75;100.00;77420.75;5034312;28;20294;-70
2022/07/05 02:52:48;;;;;;;;;;;;;;;-142.75;100.00;77418.78;5052119;28;20294;-71
2022/07/05 02:55:13;;;;;;;;;;;;;;;-142.75;100.00;77416.81;5052069;28;20286;-71
2022/07/05 02:57:38;;;;;;;;;;;;;;;-142.75;100.00;77410.91;5034132;28;20453;-71
2022/07/05 03:00:04;;;;;;;;;;;;;;;-142.75;100.00;77412.88;5051825;28;20286;-71
2022/07/05 03:02:30;;;;;;;;;;;;;;;-142.75;100.00;77408.94;5051998;28;19917;-71
2022/07/05 03:04:55;;;;;;;;;;;;;;;-142.75;100.00;77406.97;5051875;28;19924;-72
2022/07/05 03:07:21;;;;;;;;;;;;;;;-142.75;100.00;77405.00;5034114;28;19917;-71
2022/07/05 03:09:46;;;;;;;;;;;;;;;-142.75;100.00;77401.06;5051985;28;19967;-71
2022/07/05 03:12:11;;;;;;;;;;;;;;;-142.75;100.00;77399.09;5051810;28;19917;-71
2022/07/05 03:14:36;;;;;;;;;;;;;;;-142.75;100.00;77401.06;5038131;28;19916;-71
2022/07/05 03:17:02;;;;;;;;;;;;;;;-142.75;100.00;77405.00;5056018;28;20271;-71
2022/07/05 03:19:27;;;;;;;;;;;;;;;-142.75;100.00;77401.06;5055676;28;19913;-71
2022/07/05 03:21:52;;;;;;;;;;;;;;;-142.75;100.00;77395.16;5038033;28;19919;-71
2022/07/05 03:24:17;;;;;;;;;;;;;;;-142.75;100.00;77383.34;5037759;28;19917;-70
2022/07/05 03:26:43;;;;;;;;;;;;;;;-142.75;100.00;77363.66;5055756;28;19913;-71
2022/07/05 03:29:08;;;;;;;;;;;;;;;-142.75;100.00;77338.06;5055521;28;19913;-71
2022/07/05 03:31:33;;;;;;;;;;;;;;;-142.75;100.00;77322.31;5055728;28;19913;-71
2022/07/05 03:33:59;;;;;;;;;;;;;;;-142.75;100.00;77314.44;5055650;28;20395;-71
2022/07/05 03:36:24;;;;;;;;;;;;;;;-142.75;100.00;77322.31;5055599;28;19947;-71
2022/07/05 03:38:49;;;;;;;;;;;;;;;-142.75;100.00;77324.28;5055408;28;19913;-71
2022/07/05 03:41:14;;;;;;;;;;;;;;;-142.75;100.00;77334.13;5055540;28;20440;-70
2022/07/05 03:43:39;;;;;;;;;;;;;;;-142.75;100.00;77332.16;5055574;28;19924;-71
2022/07/05 03:46:05;;;;;;;;;;;;;;;-142.75;100.00;77342.00;5037586;28;19924;-71
2022/07/05 03:48:30;;;;;;;;;;;;;;;-142.75;100.00;77340.03;5055142;28;20382;-71
2022/07/05 03:50:55;;;;;;;;;;;;;;;-142.75;100.00;77330.19;5055356;28;20433;-71
2022/07/05 03:53:20;;;;;;;;;;;;;;;-142.75;100.00;77328.22;5055270;28;20007;-71
2022/07/05 03:55:45;;;;;;;;;;;;;;;-142.75;100.00;77334.13;5055243;28;19958;-71
2022/07/05 03:58:11;;;;;;;;;;;;;;;-142.75;100.00;77340.03;5054909;28;19917;-71
2022/07/05 04:00:36;;;;;;;;;;;;;;;-142.75;100.00;77353.81;5037339;28;19913;-71
2022/07/05 04:03:01;;;;;;;;;;;;;;;-142.75;100.00;77349.88;5055187;28;20003;-71
2022/07/05 04:05:26;;;;;;;;;;;;;;;-142.75;100.00;77340.03;5037060;28;19963;-70
2022/07/05 04:07:53;;;;;;;;;;;;;;;-142.75;100.00;77332.16;5054834;28;20305;-70
2022/07/05 04:10:18;;;;;;;;;;;;;;;-142.75;100.00;77328.22;5037354;28;19913;-70
2022/07/05 04:12:43;;;;;;;;;;;;;;;-142.75;100.00;77332.16;5037065;28;20286;-71
2022/07/05 04:15:09;;;;;;;;;;;;;;;-142.75;100.00;77332.16;5054849;28;19960;-71
2022/07/05 04:17:34;;;;;;;;;;;;;;;-142.75;100.00;77353.81;5054854;28;19913;-71
2022/07/05 04:19:59;;;;;;;;;;;;;;;-142.75;100.00;77375.47;5054553;28;20003;-70
2022/07/05 04:22:24;;;;;;;;;;;;;;;-142.75;100.00;77381.38;5036902;28;20370;-70
2022/07/05 04:27:33;;;;;;;;;;;;;;;-142.75;100.00;77377.44;5054798;28;19935;-71
2022/07/05 04:29:59;;;;;;;;;;;;;;;-142.75;100.00;77365.63;5054349;28;19913;-71
2022/07/05 04:32:24;;;;;;;;;;;;;;;-142.75;100.00;77343.97;5036697;28;19913;-71
2022/07/05 04:34:49;;;;;;;;;;;;;;;-142.75;100.00;77322.31;5054448;28;19913;-71
2022/07/05 04:37:14;;;;;;;;;;;;;;;-142.75;100.00;77318.38;5054500;28;19920;-70
2022/07/05 04:39:40;;;;;;;;;;;;;;;-142.75;100.00;77312.47;5054113;28;19913;-71
2022/07/05 04:42:05;;;;;;;;;;;;;;;-142.75;100.00;77314.44;5054400;28;20379;-71
2022/07/05 04:44:30;;;;;;;;;;;;;;;-142.75;100.00;77314.44;5054137;28;20058;-71
2022/07/05 04:46:55;;;;;;;;;;;;;;;-142.75;100.00;77302.63;5054295;28;19982;-71
2022/07/05 04:49:20;;;;;;;;;;;;;;;-142.75;100.00;77300.66;5054019;28;20066;-71
2022/07/05 04:51:46;;;;;;;;;;;;;;;-142.75;100.00;77296.72;5054250;28;20003;-71
2022/07/05 04:54:11;;;;;;;;;;;;;;;-142.75;100.00;77306.56;5054032;28;20002;-71
2022/07/05 04:56:36;;;;;;;;;;;;;;;-142.75;100.00;77312.47;5054068;28;20007;-71
2022/07/05 04:59:01;;;;;;;;;;;;;;;-142.75;100.00;77304.59;5053941;28;20401;-71
2022/07/05 05:01:26;;;;;;;;;;;;;;;-142.75;100.00;77280.97;5054034;28;19919;-70
2022/07/05 05:03:52;;;;;;;;;;;;;;;-142.75;100.00;77265.22;5036101;28;19913;-71
2022/07/05 05:06:17;;;;;;;;;;;;;;;-142.75;100.00;77243.56;5053899;28;19917;-70
2022/07/05 05:08:42;;;;;;;;;;;;;;;-142.75;100.00;77231.75;5035757;28;20369;-71
2022/07/05 05:11:07;;;;;;;;;;;;;;;-142.75;100.00;77221.91;5053790;28;19962;-71
2022/07/05 05:13:33;;;;;;;;;;;;;;;-142.75;100.00;77202.22;5053787;28;19952;-71
2022/07/05 05:15:58;;;;;;;;;;;;;;;-142.75;100.00;77184.50;5036000;28;19913;-70
2022/07/05 05:18:26;;;;;;;;;;;;;;;-142.75;100.00;77176.63;5053483;28;19913;-70
2022/07/05 05:20:52;;;;;;;;;;;;;;;-142.75;100.00;77172.69;5053650;28;19955;-70
2022/07/05 05:23:17;;;;;;;;;;;;;;;-142.75;100.00;77170.72;5053494;28;19959;-69
2022/07/05 05:25:42;;;;;;;;;;;;;;;-142.75;100.00;77151.03;5053422;28;20435;-70
2022/07/05 05:28:07;;;;;;;;;;;;;;;-142.75;100.00;77141.19;5053267;28;19916;-70
2022/07/05 05:30:33;;;;;;;;;;;;;;;-142.75;100.00;77137.25;5035605;28;19958;-71
2022/07/05 05:32:58;;;;;;;;;;;;;;;-142.75;100.00;77129.38;5053504;28;19919;-71
2022/07/05 05:35:23;;;;;;;;;;;;;;;-142.75;100.00;77111.66;5052716;28;19955;-72
2022/07/05 05:37:50;;;;;;;;;;;;;;;-142.75;100.00;77105.75;5053156;28;19913;-70
2022/07/05 05:40:15;;;;;;;;;;;;;;;-142.75;100.00;77103.78;5035322;28;20027;-71
2022/07/05 05:42:40;;;;;;;;;;;;;;;-142.75;100.00;77107.72;5053314;28;20425;-71
2022/07/05 05:45:06;;;;;;;;;;;;;;;-142.75;100.00;77091.97;5048970;22;20453;-68
2022/07/05 05:47:31;;;;;;;;;;;;;;;-142.75;100.00;77078.19;4951199;29;19954;-68
2022/07/05 05:49:56;;;;;;;;;;;;;;;-142.75;100.00;77082.13;4950434;29;19957;-67
2022/07/05 05:52:21;;;;;;;;;;;;;;;-142.75;100.00;77072.28;4952389;29;19914;-68
2022/07/05 05:54:47;;;;;;;;;;;;;;;-142.75;100.00;77070.31;4952299;29;19914;-68
2022/07/05 05:57:12;;;;;;;;;;;;;;;-142.75;100.00;77064.41;4952304;29;19969;-69
2022/07/05 05:59:37;;;;;;;;;;;;;;;-142.75;100.00;77062.44;4951905;29;19922;-68
2022/07/05 06:02:02;;;;;;;;;;;;;;;-142.75;100.00;77048.66;4952171;29;20009;-68
2022/07/05 06:04:27;;;;;;;;;;;;;;;-142.75;100.00;77042.75;4951926;29;19919;-68
2022/07/05 06:06:53;;;;;;;;;;;;;;;-142.75;100.00;77046.69;4952127;29;19915;-67
2022/07/05 06:09:18;;;;;;;;;;;;;;;-142.75;100.00;77040.78;4951826;28;20396;-69
2022/07/05 06:11:43;;;;;;;;;;;;;;;-142.75;100.00;77034.88;4951895;29;19914;-69
2022/07/05 06:14:09;;;;;;;;;;;;;;;-142.75;100.00;77030.94;4952008;29;20530;-69
2022/07/05 06:16:34;;;;;;;;;;;;;;;-142.75;100.00;77040.78;4951902;28;19921;-68
2022/07/05 06:18:59;;;;;;;;;;;;;;;-142.75;100.00;77040.78;4951662;29;19914;-68
2022/07/05 06:21:24;;;;;;;;;;;;;;;-142.75;100.00;77042.75;4951820;29;20008;-68
2022/07/05 06:23:50;;;;;;;;;;;;;;;-142.75;100.00;77044.72;4951831;28;19921;-68
2022/07/05 06:26:15;;;;;;;;;;;;;;;-142.75;100.00;77038.81;4951586;28;20013;-68
2022/07/05 06:28:40;;;;;;;;;;;;;;;-142.75;100.00;77032.91;4951492;29;19915;-68
2022/07/05 06:31:05;;;;;;;;;;;;;;;-142.75;100.00;77027.00;4951936;28;20013;-68
2022/07/05 06:33:30;;;;;;;;;;;;;;;-142.75;100.00;77027.00;4951686;29;19914;-68
2022/07/05 06:35:56;;;;;;;;;;;;;;;-142.75;100.00;77027.00;4951591;29;20476;-68
2022/07/05 06:38:21;;;;;;;;;;;;;;;-142.75;100.00;77028.97;4951337;29;19968;-68
2022/07/05 06:40:46;;;;;;;;;;;;;;;-142.75;100.00;77027.00;4951550;29;19914;-68
2022/07/05 06:43:12;;;;;;;;;;;;;;;-142.75;100.00;77025.03;4951574;29;19938;-68
2022/07/05 06:45:38;;;;;;;;;;;;;;;-142.75;100.00;77019.13;4951252;28;19922;-68
2022/07/05 06:48:04;;;;;;;;;;;;;;;-142.75;100.00;77019.13;4951474;29;19929;-68
2022/07/05 06:50:35;;;;;;;;;;;;;;;-142.75;100.00;77021.09;4951505;29;19914;-69
2022/07/05 06:53:00;;;;;;;;;;;;;;;-142.75;100.00;77015.19;4951449;28;19960;-68
2022/07/05 06:55:25;;;;;;;;;;;;;;;-142.75;100.00;77003.38;4951239;29;20001;-68
2022/07/05 06:58:01;;;;;;;;;;;;;;;-142.75;100.00;77009.28;4951246;29;19940;-67
2022/07/05 07:00:27;;;;;;;;;;;;;;;-142.75;100.00;77015.19;4951396;29;20368;-68
2022/07/05 07:02:52;;;;;;;;;;;;;;;-142.75;100.00;77005.34;4951293;29;19914;-69
2022/07/05 07:05:17;;;;;;;;;;;;;;;-142.75;100.00;76999.44;4951156;29;19918;-69
2022/07/05 07:10:26;;;;;;;;;;;;;;;-142.75;100.00;76987.63;4951410;29;19937;-67
2022/07/05 07:12:51;;;;;;;;;;;;;;;-142.75;100.00;76971.88;4951416;29;20443;-68
2022/07/05 07:15:17;;;;;;;;;;;;;;;-142.75;100.00;76958.09;4951156;29;20359;-68
2022/07/05 07:17:42;;;;;;;;;;;;;;;-142.75;100.00;76948.25;4950368;28;20335;-65
2022/07/05 07:20:08;;;;;;;;;;;;;;;-142.75;100.00;76924.63;4949958;28;20325;-66
2022/07/05 07:22:33;;;;;;;;;;;;;;;-142.75;100.00;76920.69;4950100;29;20434;-65
2022/07/05 07:24:58;;;;;;;;;;;;;;;-142.75;100.00;76901.00;4950182;29;19965;-65
2022/07/05 07:27:23;;;;;;;;;;;;;;;-142.75;100.00;76899.03;4950201;29;19915;-66
2022/07/05 07:29:48;;;;;;;;;;;;;;;-142.75;100.00;76897.06;4949952;29;20379;-65
2022/07/05 07:32:14;;;;;;;;;;;;;;;-142.75;100.00;76883.28;4948623;28;19921;-64
2022/07/05 07:34:39;;;;;;;;;;;;;;;-142.75;100.00;76845.88;4950013;29;19914;-65
2022/07/05 07:37:05;;;;;;;;;;;;;;;-142.75;100.00;76806.50;4950110;29;20001;-65
2022/07/05 07:39:33;;;;;;;;;;;;;;;-142.75;100.00;76784.88;4949871;29;19965;-66
2022/07/05 07:41:58;;;;;;;;;;;;;;;-142.75;100.00;76769.13;4948756;28;20173;-66
2022/07/05 07:44:24;;;;;;;;;;;;;;;-142.75;100.00;76763.22;4949971;29;19918;-67
2022/07/05 07:46:50;;;;;;;;;;;;;;;-142.75;100.00;76753.38;4949708;29;19970;-64
2022/07/05 07:49:15;;;;;;;;;;;;;;;-142.75;100.00;76735.66;4949348;28;19922;-65
2022/07/05 07:51:40;;;;;;;;;;;;;;;-142.75;100.00;76721.88;4949755;29;19914;-65
2022/07/05 07:54:06;;;;;;;;;;;;;;;-142.75;100.00;76696.28;4939856;29;19976;-65
2022/07/05 07:56:31;;;;;;;;;;;;;;;-142.75;100.00;76680.53;4953413;28;20433;-66
2022/07/05 07:58:56;;;;;;;;;;;;;;;-142.75;100.00;76668.72;4939588;29;19945;-66
2022/07/05 08:01:22;;;;;;;;;;;;;;;-142.75;100.00;76668.72;4943812;29;19914;-66
2022/07/05 08:03:47;;;;;;;;;;;;;;;-142.75;100.00;76688.41;4942688;29;20058;-66
2022/07/05 08:06:13;;;;;;;;;;;;;;;-142.75;100.00;76649.03;4939628;28;20296;-66
2022/07/05 08:08:39;;;;;;;;;;;;;;;-142.75;100.00;76613.59;4952205;29;19919;-66
2022/07/05 08:11:05;;;;;;;;;;;;;;;-142.75;100.00;76593.91;4953071;28;19921;-65
2022/07/05 08:13:30;;;;;;;;;;;;;;;-142.75;100.00;76578.16;4952788;29;19914;-67
2022/07/05 08:15:55;;;;;;;;;;;;;;;-142.75;100.00;76562.41;4944443;28;19958;-67
2022/07/05 08:23:48;;;;;;;;;;;;;;;-142.75;100.00;76511.25;4938422;29;20453;-66
2022/07/05 08:26:13;;;;;;;;;;;;;;;-142.75;100.00;76487.63;4947962;28;19961;-67
2022/07/05 08:28:39;;;;;;;;;;;;;;;-142.75;100.00;76521.09;4992504;28;20006;-66
2022/07/05 08:31:04;;;;;;;;;;;;;;;-142.75;100.00;76538.78;5014045;28;19914;-66
2022/07/05 08:33:29;;;;;;;;;;;;;;;-142.75;100.00;76556.50;5013473;28;19913;-66
2022/07/05 08:35:54;;;;;;;;;;;;;;;-142.75;100.00;76550.59;5013799;28;19917;-66
2022/07/05 08:38:19;;;;;;;;;;;;;;;-142.75;100.00;76523.06;5013686;28;19914;-66
2022/07/05 08:40:46;;;;;;;;;;;;;;;-142.75;100.00;76525.03;5028624;28;19913;-65
2022/07/05 08:43:12;;;;;;;;;;;;;;;-142.75;100.00;76542.72;5033528;28;19917;-66
2022/07/05 08:45:39;;;;;;;;;;;;;;;-142.75;100.00;76507.31;5033174;28;19921;-65
2022/07/05 08:48:04;;;;;;;;;;;;;;;-142.75;100.00;76485.66;5032742;28;20020;-66
2022/07/05 08:50:30;;;;;;;;;;;;;;;-142.75;86.89;76487.63;5033530;28;20641;-65
2022/07/05 08:52:55;;;;;;;;;;;;;;;-142.75;93.93;76452.19;5033294;28;19913;-66
2022/07/05 08:55:21;;;;;;;;;;;;;;;-142.75;96.72;76420.69;5033109;28;19913;-66
2022/07/05 08:57:46;;;;;;;;;;;;;;;-142.75;96.01;76395.09;5033084;28;19924;-67
2022/07/05 09:00:12;;;;;;;;;;;;;;;-142.75;91.20;76397.06;4938072;28;19919;-66
2022/07/05 09:02:37;;;;;;;;;;;;;;;-142.75;97.02;76355.72;4979143;28;19913;-67
2022/07/05 09:05:04;;;;;;;;;;;;;;;-142.75;98.32;76320.31;5033064;28;19917;-67
2022/07/05 09:07:30;;;;;;;;;;;;;;;-142.75;96.23;76345.91;5032909;28;19917;-67
2022/07/05 09:09:58;;;;;;;;;;;;;;;-142.75;92.08;76381.31;5032066;28;20329;-67
2022/07/05 09:12:23;;;;;;;;;;;;;;;-142.75;93.30;76450.22;5032619;28;19980;-67
2022/07/05 09:14:50;;;;;;;;;;;;;;;-142.75;98.97;76469.91;5031533;28;19967;-67
2022/07/05 09:17:15;;;;;;;;;;;;;;;-142.75;100.00;76438.41;5032602;28;19960;-66
2022/07/05 09:19:41;;;;;;;;;;;;;;;-142.75;98.19;76402.97;5032452;28;20390;-67
2022/07/05 09:22:08;;;;;;;;;;;;;;;-142.75;92.12;76393.13;5032699;28;19958;-67
2022/07/05 09:24:42;;;;;;;;;;;;;;;-142.75;95.53;76393.13;5032644;28;20016;-66
2022/07/05 09:27:07;;;;;;;;;;;;;;;-142.75;98.49;76440.38;5032799;28;19928;-67
2022/07/05 09:29:32;;;;;;;;;;;;;;;-142.75;98.74;76515.19;5009372;28;19921;-67
2022/07/05 09:31:57;;;;;;;;;;;;;;;-142.75;100.00;76519.13;5012520;28;20387;-66
2022/07/05 09:34:22;;;;;;;;;;;;;;;-142.75;100.00;76507.31;4994482;28;20015;-67
2022/07/05 09:36:48;;;;;;;;;;;;;;;-142.75;98.44;76515.19;4949537;29;19927;-67
2022/07/05 09:39:13;;;;;;;;;;;;;;;-142.75;100.00;76483.69;4965918;28;20005;-67
2022/07/05 09:41:38;;;;;;;;;;;;;;;-142.75;100.00;76471.88;4951148;28;20459;-66
2022/07/05 09:44:03;;;;;;;;;;;;;;;-142.75;100.00;76471.88;4950923;29;20643;-65
2022/07/05 09:46:29;;;;;;;;;;;;;;;-142.75;100.00;76444.31;4951102;28;19994;-66
2022/07/05 09:48:54;;;;;;;;;;;;;;;-142.75;100.00;76424.63;4951118;28;20444;-67
2022/07/05 09:51:20;;;;;;;;;;;;;;;-142.75;97.03;76452.19;4951469;29;20326;-67
2022/07/05 09:53:48;;;;;;;;;;;;;;;-142.75;100.00;76513.22;4944485;28;20410;-67
2022/07/05 09:56:14;;;;;;;;;;;;;;;-142.75;100.00;76536.84;4941905;29;19915;-65
2022/07/05 09:58:40;;;;;;;;;;;;;;;-142.75;100.00;76554.53;4942508;29;19926;-66
2022/07/05 10:01:23;;;;;;;;;;;;;;;-142.75;100.00;76495.50;4951172;29;20009;-66
2022/07/05 10:03:52;;;;;;;;;;;;;;;-142.75;96.69;76434.47;4951356;29;19945;-66
2022/07/05 10:06:19;;;;;;;;;;;;;;;-142.75;97.28;76406.91;4951137;28;19918;-67
2022/07/05 10:08:44;;;;;;;;;;;;;;;-142.75;96.57;76406.91;4950907;29;20403;-66
2022/07/05 10:11:09;;;;;;;;;;;;;;;-142.75;91.59;76402.97;4951188;29;19914;-64
2022/07/05 10:13:35;;;;;;;;;;;;;;;-142.75;83.33;76385.25;4951006;29;19980;-67
2022/07/05 10:16:00;;;;;;;;;;;;;;;-142.75;82.37;76369.50;4951273;29;20360;-67
2022/07/05 10:18:31;;;;;;;;;;;;;;;-142.75;82.17;76357.69;4951647;29;19944;-68
2022/07/05 10:20:58;;;;;;;;;;;;;;;-142.75;87.31;76306.53;4951972;28;19922;-68
2022/07/05 10:23:24;;;;;;;;;;;;;;;-142.75;84.24;76290.78;4951629;29;20360;-68
2022/07/05 10:25:49;;;;;;;;;;;;;;;-142.75;83.21;76290.78;4951611;28;19981;-68
2022/07/05 10:28:15;;;;;;;;;;;;;;;-142.75;83.00;76282.91;4951520;29;19922;-68
2022/07/05 10:30:41;;;;;;;;;;;;;;;-142.75;75.88;76294.72;4950463;28;20312;-67
2022/07/05 10:33:07;;;;;;;;;;;;;;;-142.75;75.27;76330.16;4951840;28;19914;-68
2022/07/05 10:35:32;;;;;;;;;;;;;;;-142.75;80.12;76302.59;4951657;29;19930;-68
2022/07/05 10:37:58;;;;;;;;;;;;;;;-142.75;77.66;76273.06;4945581;28;19926;-67
2022/07/05 10:40:23;;;;;;;;;;;;;;;-142.75;77.54;76259.28;4997362;28;19961;-67
2022/07/05 10:42:50;;;;;;;;;;;;;;;-142.75;80.61;76215.97;5011221;28;20287;-67
2022/07/05 10:45:34;;;;;;;;;;;;;;;-142.75;70.55;76208.09;5014966;28;20384;-66
2022/07/05 10:48:09;;;;;;;;;;;;;;;-142.75;74.20;76200.25;5031929;28;20339;-68
2022/07/05 10:50:45;;;;;;;;;;;;;;;-142.75;75.12;76176.63;4981957;28;20300;-67
2022/07/05 10:53:12;;;;;;;;;;;;;;;-142.75;74.13;76160.88;4967501;28;19922;-67
2022/07/05 10:55:51;;;;;;;;;;;;;;;-142.75;77.04;76245.50;4932113;29;19918;-66
2022/07/05 10:58:17;;;;;;;;;;;;;;;-142.75;70.19;76263.22;4931343;29;19915;-68
2022/07/05 11:00:43;;;;;;;;;;;;;;;-142.75;71.49;76261.25;4930964;29;19921;-66
2022/07/05 11:03:27;;;;;;;;;;;;;;;-142.75;72.30;76237.63;4930478;28;19985;-67
2022/07/05 11:05:52;;;;;;;;;;;;;;;-142.75;72.60;76239.59;4932184;29;19919;-67
2022/07/05 11:08:17;;;;;;;;;;;;;;;-142.75;71.78;76235.66;4931964;29;19915;-67
2022/07/05 11:11:02;;;;;;;;;;;;;;;-142.75;71.26;76292.75;4935584;28;20026;-67
2022/07/05 11:13:47;;;;;;;;;;;;;;;-142.75;70.45;76369.50;4951199;28;20344;-68
2022/07/05 11:16:26;;;;;;;;;;;;;;;-142.75;71.14;76314.41;4951287;28;19948;-67
2022/07/05 11:19:11;;;;;;;;;;;;;;;-142.75;75.20;76345.91;4951074;28;19922;-68
2022/07/05 11:21:37;;;;;;;;;;;;;;;-142.75;77.65;76306.53;4950816;29;20005;-67
2022/07/05 11:24:19;;;;;;;;;;;;;;;-142.75;74.53;76273.06;4951114;29;19968;-67
2022/07/05 11:26:44;;;;;;;;;;;;;;;-142.75;68.96;76251.41;4951106;28;20299;-67
2022/07/05 11:29:28;;;;;;;;;;;;;;;-142.75;71.69;76231.72;4965547;28;20005;-67
2022/07/05 11:32:10;;;;;;;;;;;;;;;-142.75;66.42;76280.94;4951030;28;19914;-67
2022/07/05 11:34:35;;;;;;;;;;;;;;;-142.75;67.32;76275.03;4952844;28;19936;-67
2022/07/05 11:37:13;;;;;;;;;;;;;;;-142.75;68.24;76265.19;4954398;29;20001;-67
2022/07/05 11:39:38;;;;;;;;;;;;;;;-142.75;68.03;76241.56;4954092;29;19915;-67
2022/07/05 11:42:04;;;;;;;;;;;;;;;-142.75;66.14;76294.72;4954279;29;19915;-67
2022/07/05 11:44:32;;;;;;;;;;;;;;;-142.75;68.47;76351.81;4953965;29;20308;-68
2022/07/05 11:46:58;;;;;;;;;;;;;;;-142.75;67.72;76343.94;5043384;22;19925;-71
2022/07/05 11:49:23;;;;;;;;;;;;;;;-142.75;70.11;76306.53;5015780;28;20397;-72
2022/07/05 11:51:58;;;;;;;;;;;;;;;-142.75;68.98;76282.91;5035522;28;19913;-73
2022/07/05 11:54:25;;;;;;;;;;;;;;;-142.75;64.88;76241.56;5035422;28;19917;-73
2022/07/05 11:56:50;;;;;;;;;;;;;;;-142.75;65.79;76265.19;5017545;28;19967;-73
2022/07/05 11:59:22;;;;;;;;;;;;;;;-142.75;66.08;76302.59;5017331;28;19937;-74
2022/07/05 12:01:48;;;;;;;;;;;;;;;-142.75;67.69;76261.25;5035226;28;19917;-74
2022/07/05 12:04:25;;;;;;;;;;;;;;;-142.75;66.96;76249.44;5017459;28;20311;-73
2022/07/05 12:06:50;;;;;;;;;;;;;;;-142.75;65.25;76249.44;5017361;28;19920;-72
2022/07/05 12:09:21;;;;;;;;;;;;;;;-142.75;67.29;76267.16;5034889;28;19916;-71
2022/07/05 12:14:34;;;;;;;;;;;;;;;-142.75;67.47;76343.94;5035155;28;19981;-71
2022/07/05 12:17:15;;;;;;;;;;;;;;;-142.75;67.79;76349.81;5017195;28;19917;-72
2022/07/05 12:19:40;;;;;;;;;;;;;;;-142.75;73.93;76338.03;5034709;28;20379;-71
2022/07/05 12:22:06;;;;;;;;;;;;;;;-142.75;70.50;76365.56;5017143;28;20008;-71
2022/07/05 12:24:31;;;;;;;;;;;;;;;-142.75;68.72;76393.13;5016941;28;20406;-71
2022/07/05 12:26:56;;;;;;;;;;;;;;;-142.75;73.12;76444.31;5016955;28;20322;-71
2022/07/05 12:29:21;;;;;;;;;;;;;;;-142.75;74.49;76448.25;5034560;28;19920;-73